sensor_id;sensor_type;location;lat;lon;timestamp;pressure;altitude;pressure_sealevel;temperature;humidity
71306;BME280;59097;46.858;18.632;2023-04-30T00:01:02;100270.81;;;10.84;100.00
71306;BME280;59097;46.858;18.632;2023-04-30T00:03:31;100274.63;;;10.05;100.00
71306;BME280;59097;46.858;18.632;2023-04-30T00:05:59;100271.81;;;9.92;100.00
71306;BME280;59097;46.858;18.632;2023-04-30T00:08:28;100275.94;;;9.94;100.00
71306;BME280;59097;46.858;18.632;2023-04-30T00:10:57;100257.69;;;9.85;100.00
71306;BME280;59097;46.858;18.632;2023-04-30T00:13:25;100263.31;;;9.75;100.00
71306;BME280;59097;46.858;18.632;2023-04-30T00:15:53;100229.22;;;9.51;100.00
71306;BME280;59097;46.858;18.632;2023-04-30T00:18:36;100273.06;;;9.75;100.00
71306;BME280;59097;46.858;18.632;2023-04-30T00:21:33;100271.37;;;9.67;100.00
71306;BME280;59097;46.858;18.632;2023-04-30T00:24:15;100273.75;;;9.62;100.00
71306;BME280;59097;46.858;18.632;2023-04-30T00:26:41;100266.00;;;9.61;100.00
71306;BME280;59097;46.858;18.632;2023-04-30T00:29:09;100260.25;;;9.57;100.00
71306;BME280;59097;46.858;18.632;2023-04-30T00:31:35;100257.59;;;9.57;100.00
71306;BME280;59097;46.858;18.632;2023-04-30T00:34:02;100252.22;;;9.50;100.00
71306;BME280;59097;46.858;18.632;2023-04-30T00:36:28;100251.41;;;9.50;100.00
71306;BME280;59097;46.858;18.632;2023-04-30T00:39:01;100263.09;;;10.34;100.00
71306;BME280;59097;46.858;18.632;2023-04-30T00:41:31;100263.09;;;10.34;100.00
71306;BME280;59097;46.858;18.632;2023-04-30T00:43:59;100263.19;;;9.83;100.00
71306;BME280;59097;46.858;18.632;2023-04-30T00:46:30;100265.28;;;9.88;100.00
71306;BME280;59097;46.858;18.632;2023-04-30T00:48:58;100264.37;;;10.02;100.00
71306;BME280;59097;46.858;18.632;2023-04-30T00:51:31;100273.41;;;10.07;100.00
71306;BME280;59097;46.858;18.632;2023-04-30T00:54:00;100279.62;;;10.15;100.00
71306;BME280;59097;46.858;18.632;2023-04-30T00:56:29;100278.53;;;10.09;100.00
71306;BME280;59097;46.858;18.632;2023-04-30T00:59:13;100277.06;;;10.21;100.00
71306;BME280;59097;46.858;18.632;2023-04-30T01:01:55;100275.06;;;10.08;100.00
71306;BME280;59097;46.858;18.632;2023-04-30T01:04:21;100278.47;;;10.02;100.00
71306;BME280;59097;46.858;18.632;2023-04-30T01:06:48;100278.19;;;9.97;100.00
71306;BME280;59097;46.858;18.632;2023-04-30T01:09:14;100264.31;;;9.74;100.00
71306;BME280;59097;46.858;18.632;2023-04-30T01:11:59;100257.66;;;9.64;100.00
71306;BME280;59097;46.858;18.632;2023-04-30T01:17:33;100274.13;;;9.59;100.00
71306;BME280;59097;46.858;18.632;2023-04-30T01:20:08;100275.34;;;10.14;100.00
71306;BME280;59097;46.858;18.632;2023-04-30T01:25:43;100280.13;;;9.53;100.00
71306;BME280;59097;46.858;18.632;2023-04-30T01:28:17;100274.50;;;9.41;100.00
71306;BME280;59097;46.858;18.632;2023-04-30T01:30:49;100282.81;;;9.38;100.00
71306;BME280;59097;46.858;18.632;2023-04-30T01:33:18;100280.06;;;9.46;100.00
71306;BME280;59097;46.858;18.632;2023-04-30T01:36:09;100282.00;;;9.38;100.00
71306;BME280;59097;46.858;18.632;2023-04-30T01:42:18;100241.72;;;9.07;100.00
71306;BME280;59097;46.858;18.632;2023-04-30T01:47:49;100286.81;;;9.49;100.00
71306;BME280;59097;46.858;18.632;2023-04-30T01:53:06;100262.53;;;9.45;100.00
71306;BME280;59097;46.858;18.632;2023-04-30T01:55:42;100286.25;;;9.54;100.00
71306;BME280;59097;46.858;18.632;2023-04-30T01:58:15;100282.75;;;10.03;100.00
71306;BME280;59097;46.858;18.632;2023-04-30T02:00:44;100282.75;;;10.03;100.00
71306;BME280;59097;46.858;18.632;2023-04-30T02:03:13;100169.31;;;8.64;100.00
71306;BME280;59097;46.858;18.632;2023-04-30T02:05:41;100296.97;;;9.31;100.00
71306;BME280;59097;46.858;18.632;2023-04-30T02:08:10;100295.97;;;9.32;100.00
71306;BME280;59097;46.858;18.632;2023-04-30T02:10:38;100266.22;;;9.15;100.00
71306;BME280;59097;46.858;18.632;2023-04-30T02:13:06;100298.25;;;9.35;100.00
71306;BME280;59097;46.858;18.632;2023-04-30T02:15:34;100300.53;;;9.38;100.00
71306;BME280;59097;46.858;18.632;2023-04-30T02:18:03;100285.03;;;9.35;100.00
71306;BME280;59097;46.858;18.632;2023-04-30T02:20:31;100208.69;;;8.88;100.00
71306;BME280;59097;46.858;18.632;2023-04-30T02:23:00;100293.50;;;9.45;100.00
71306;BME280;59097;46.858;18.632;2023-04-30T02:25:28;100204.66;;;8.92;100.00
71306;BME280;59097;46.858;18.632;2023-04-30T02:27:57;100249.69;;;9.28;100.00
71306;BME280;59097;46.858;18.632;2023-04-30T02:30:25;100290.72;;;9.53;100.00
71306;BME280;59097;46.858;18.632;2023-04-30T02:32:53;100288.75;;;9.55;100.00
71306;BME280;59097;46.858;18.632;2023-04-30T02:35:21;100290.00;;;9.59;100.00
71306;BME280;59097;46.858;18.632;2023-04-30T02:37:49;100294.56;;;9.50;100.00
71306;BME280;59097;46.858;18.632;2023-04-30T02:40:18;100296.94;;;9.45;100.00
71306;BME280;59097;46.858;18.632;2023-04-30T02:42:46;100291.13;;;9.35;100.00
71306;BME280;59097;46.858;18.632;2023-04-30T02:45:15;100301.53;;;9.37;100.00
71306;BME280;59097;46.858;18.632;2023-04-30T02:47:43;100238.25;;;8.92;100.00
71306;BME280;59097;46.858;18.632;2023-04-30T02:50:12;100293.50;;;9.30;100.00
71306;BME280;59097;46.858;18.632;2023-04-30T02:52:54;100281.09;;;9.16;100.00
71306;BME280;59097;46.858;18.632;2023-04-30T02:55:22;100299.72;;;9.23;100.00
71306;BME280;59097;46.858;18.632;2023-04-30T02:58:05;100300.53;;;9.09;100.00
71306;BME280;59097;46.858;18.632;2023-04-30T03:00:47;100315.13;;;9.05;100.00
71306;BME280;59097;46.858;18.632;2023-04-30T03:03:13;100320.41;;;9.05;100.00
71306;BME280;59097;46.858;18.632;2023-04-30T03:05:39;100328.72;;;9.02;100.00
71306;BME280;59097;46.858;18.632;2023-04-30T03:08:06;100317.94;;;8.89;100.00
71306;BME280;59097;46.858;18.632;2023-04-30T03:10:32;100316.56;;;8.93;100.00
71306;BME280;59097;46.858;18.632;2023-04-30T03:12:58;100220.84;;;8.31;100.00
71306;BME280;59097;46.858;18.632;2023-04-30T03:15:24;100326.41;;;8.84;100.00
71306;BME280;59097;46.858;18.632;2023-04-30T03:17:50;100253.59;;;8.44;100.00
71306;BME280;59097;46.858;18.632;2023-04-30T03:20:17;100212.63;;;8.03;100.00
71306;BME280;59097;46.858;18.632;2023-04-30T03:22:43;100262.41;;;8.37;100.00
71306;BME280;59097;46.858;18.632;2023-04-30T03:25:09;100327.09;;;8.63;100.00
71306;BME280;59097;46.858;18.632;2023-04-30T03:27:36;100184.16;;;7.76;100.00
71306;BME280;59097;46.858;18.632;2023-04-30T03:30:03;100310.22;;;8.64;100.00
71306;BME280;59097;46.858;18.632;2023-04-30T03:32:29;100335.41;;;8.75;100.00
71306;BME280;59097;46.858;18.632;2023-04-30T03:34:56;100340.50;;;8.76;100.00
71306;BME280;59097;46.858;18.632;2023-04-30T03:37:22;100294.63;;;8.55;100.00
71306;BME280;59097;46.858;18.632;2023-04-30T03:39:48;100302.03;;;8.74;100.00
71306;BME280;59097;46.858;18.632;2023-04-30T03:42:14;100317.66;;;8.83;100.00
71306;BME280;59097;46.858;18.632;2023-04-30T03:44:41;100303.06;;;8.73;100.00
71306;BME280;59097;46.858;18.632;2023-04-30T03:47:07;100335.37;;;8.98;100.00
71306;BME280;59097;46.858;18.632;2023-04-30T03:49:39;100336.03;;;9.29;100.00
71306;BME280;59097;46.858;18.632;2023-04-30T03:52:08;100340.12;;;9.31;100.00
71306;BME280;59097;46.858;18.632;2023-04-30T03:54:36;100332.00;;;9.33;100.00
71306;BME280;59097;46.858;18.632;2023-04-30T03:57:04;100341.50;;;9.42;100.00
71306;BME280;59097;46.858;18.632;2023-04-30T03:59:35;100346.31;;;9.53;100.00
71306;BME280;59097;46.858;18.632;2023-04-30T04:02:02;100359.94;;;9.50;100.00
71306;BME280;59097;46.858;18.632;2023-04-30T04:04:31;100349.25;;;9.43;100.00
71306;BME280;59097;46.858;18.632;2023-04-30T04:06:59;100359.00;;;9.43;100.00
71306;BME280;59097;46.858;18.632;2023-04-30T04:09:28;100365.69;;;9.39;100.00
71306;BME280;59097;46.858;18.632;2023-04-30T04:11:56;100362.13;;;9.61;100.00
71306;BME280;59097;46.858;18.632;2023-04-30T04:14:24;100377.28;;;9.67;100.00
71306;BME280;59097;46.858;18.632;2023-04-30T04:17:07;100382.38;;;9.83;100.00
71306;BME280;59097;46.858;18.632;2023-04-30T04:20:05;100377.62;;;9.93;100.00
71306;BME280;59097;46.858;18.632;2023-04-30T04:22:31;100369.94;;;9.98;100.00
71306;BME280;59097;46.858;18.632;2023-04-30T04:24:57;100387.97;;;10.09;100.00
71306;BME280;59097;46.858;18.632;2023-04-30T04:27:23;100386.41;;;10.30;100.00
71306;BME280;59097;46.858;18.632;2023-04-30T04:29:50;100376.34;;;10.40;100.00
71306;BME280;59097;46.858;18.632;2023-04-30T04:32:16;100378.66;;;10.49;100.00
71306;BME280;59097;46.858;18.632;2023-04-30T04:34:49;100394.28;;;11.42;100.00
71306;BME280;59097;46.858;18.632;2023-04-30T04:37:17;100394.28;;;11.42;100.00
71306;BME280;59097;46.858;18.632;2023-04-30T04:39:46;100401.94;;;10.96;100.00
71306;BME280;59097;46.858;18.632;2023-04-30T04:42:14;100407.34;;;11.09;100.00
71306;BME280;59097;46.858;18.632;2023-04-30T04:44:47;100403.59;;;11.25;100.00
71306;BME280;59097;46.858;18.632;2023-04-30T04:47:16;100355.94;;;11.17;100.00
71306;BME280;59097;46.858;18.632;2023-04-30T04:49:47;100415.38;;;11.44;100.00
71306;BME280;59097;46.858;18.632;2023-04-30T04:52:15;100419.56;;;11.59;100.00
71306;BME280;59097;46.858;18.632;2023-04-30T04:54:43;100405.75;;;11.43;100.00
71306;BME280;59097;46.858;18.632;2023-04-30T04:57:40;100422.75;;;11.48;100.00
71306;BME280;59097;46.858;18.632;2023-04-30T05:00:22;100422.16;;;11.53;100.00
71306;BME280;59097;46.858;18.632;2023-04-30T05:02:50;100415.25;;;11.58;100.00
71306;BME280;59097;46.858;18.632;2023-04-30T05:05:17;100418.62;;;11.46;100.00
71306;BME280;59097;46.858;18.632;2023-04-30T05:07:43;100427.13;;;11.62;100.00
71306;BME280;59097;46.858;18.632;2023-04-30T05:10:09;100410.28;;;11.49;100.00
71306;BME280;59097;46.858;18.632;2023-04-30T05:12:41;100439.75;;;12.35;100.00
71306;BME280;59097;46.858;18.632;2023-04-30T05:15:10;100439.75;;;12.35;100.00
71306;BME280;59097;46.858;18.632;2023-04-30T05:17:38;100437.66;;;11.77;100.00
71306;BME280;59097;46.858;18.632;2023-04-30T05:20:07;100439.34;;;11.84;100.00
71306;BME280;59097;46.858;18.632;2023-04-30T05:22:35;100452.88;;;11.96;100.00
71306;BME280;59097;46.858;18.632;2023-04-30T05:25:03;100450.59;;;11.86;100.00
71306;BME280;59097;46.858;18.632;2023-04-30T05:27:32;100454.16;;;12.00;100.00
71306;BME280;59097;46.858;18.632;2023-04-30T05:30:01;100446.41;;;12.05;100.00
71306;BME280;59097;46.858;18.632;2023-04-30T05:32:43;100405.41;;;11.86;100.00
71306;BME280;59097;46.858;18.632;2023-04-30T05:35:30;100456.72;;;12.34;100.00
71306;BME280;59097;46.858;18.632;2023-04-30T05:38:01;100425.12;;;12.05;100.00
71306;BME280;59097;46.858;18.632;2023-04-30T05:40:28;100458.72;;;12.19;100.00
71306;BME280;59097;46.858;18.632;2023-04-30T05:42:55;100454.63;;;12.17;100.00
71306;BME280;59097;46.858;18.632;2023-04-30T05:45:21;100437.81;;;12.03;100.00
71306;BME280;59097;46.858;18.632;2023-04-30T05:47:53;100469.38;;;12.93;98.38
71306;BME280;59097;46.858;18.632;2023-04-30T05:50:22;100469.38;;;12.93;98.38
71306;BME280;59097;46.858;18.632;2023-04-30T05:52:50;100474.44;;;12.61;99.96
71306;BME280;59097;46.858;18.632;2023-04-30T05:55:18;100476.34;;;12.87;99.87
71306;BME280;59097;46.858;18.632;2023-04-30T05:57:46;100479.25;;;13.45;97.37
71306;BME280;59097;46.858;18.632;2023-04-30T06:00:14;100473.66;;;13.85;94.63
71306;BME280;59097;46.858;18.632;2023-04-30T06:02:43;100472.56;;;14.13;93.33
71306;BME280;59097;46.858;18.632;2023-04-30T06:05:11;100468.31;;;14.56;91.62
71306;BME280;59097;46.858;18.632;2023-04-30T06:07:43;100472.13;;;15.04;89.59
71306;BME280;59097;46.858;18.632;2023-04-30T06:10:27;100467.69;;;15.17;87.53
71306;BME280;59097;46.858;18.632;2023-04-30T06:13:09;100466.84;;;15.23;85.82
71306;BME280;59097;46.858;18.632;2023-04-30T06:15:35;100481.75;;;15.80;83.15
71306;BME280;59097;46.858;18.632;2023-04-30T06:18:02;100462.25;;;15.54;83.19
71306;BME280;59097;46.858;18.632;2023-04-30T06:20:28;100467.34;;;15.81;82.40
71306;BME280;59097;46.858;18.632;2023-04-30T06:22:54;100465.13;;;15.78;81.55
71306;BME280;59097;46.858;18.632;2023-04-30T06:25:21;100422.59;;;15.27;82.13
71306;BME280;59097;46.858;18.632;2023-04-30T06:28:08;100480.22;;;14.91;84.42
71306;BME280;59097;46.858;18.632;2023-04-30T06:30:37;100480.22;;;14.91;84.42
71306;BME280;59097;46.858;18.632;2023-04-30T06:33:05;100479.88;;;14.37;87.78
71306;BME280;59097;46.858;18.632;2023-04-30T06:35:33;100471.00;;;14.49;86.25
71306;BME280;59097;46.858;18.632;2023-04-30T06:38:02;100447.63;;;14.45;86.14
71306;BME280;59097;46.858;18.632;2023-04-30T06:40:30;100472.94;;;14.67;86.32
71306;BME280;59097;46.858;18.632;2023-04-30T06:42:57;100477.97;;;15.20;85.02
71306;BME280;59097;46.858;18.632;2023-04-30T06:45:26;100485.44;;;15.60;83.43
71306;BME280;59097;46.858;18.632;2023-04-30T06:47:56;100483.94;;;15.89;81.76
71306;BME280;59097;46.858;18.632;2023-04-30T06:50:55;100485.50;;;15.97;79.80
71306;BME280;59097;46.858;18.632;2023-04-30T06:53:21;100486.09;;;16.17;78.04
71306;BME280;59097;46.858;18.632;2023-04-30T06:55:48;100498.34;;;16.43;76.90
71306;BME280;59097;46.858;18.632;2023-04-30T06:58:14;100489.56;;;16.17;76.37
71306;BME280;59097;46.858;18.632;2023-04-30T07:00:41;100482.75;;;16.21;76.22
71306;BME280;59097;46.858;18.632;2023-04-30T07:03:07;100490.91;;;16.26;75.94
71306;BME280;59097;46.858;18.632;2023-04-30T07:05:40;100480.00;;;17.17;71.99
71306;BME280;59097;46.858;18.632;2023-04-30T07:08:09;100480.00;;;17.17;71.99
71306;BME280;59097;46.858;18.632;2023-04-30T07:10:37;100476.19;;;16.54;74.59
71306;BME280;59097;46.858;18.632;2023-04-30T07:13:05;100473.06;;;16.38;75.71
71306;BME280;59097;46.858;18.632;2023-04-30T07:15:35;100483.41;;;16.53;77.38
71306;BME280;59097;46.858;18.632;2023-04-30T07:18:03;100466.69;;;16.58;75.93
71306;BME280;59097;46.858;18.632;2023-04-30T07:20:31;100471.63;;;16.84;76.45
71306;BME280;59097;46.858;18.632;2023-04-30T07:23:00;100479.28;;;16.69;75.16
71306;BME280;59097;46.858;18.632;2023-04-30T07:25:34;100477.94;;;16.78;75.37
71306;BME280;59097;46.858;18.632;2023-04-30T07:28:18;100469.69;;;16.61;75.27
71306;BME280;59097;46.858;18.632;2023-04-30T07:31:08;100481.28;;;16.73;75.03
71306;BME280;59097;46.858;18.632;2023-04-30T07:33:34;100474.94;;;16.86;74.96
71306;BME280;59097;46.858;18.632;2023-04-30T07:36:01;100480.44;;;17.03;74.21
71306;BME280;59097;46.858;18.632;2023-04-30T07:38:27;100480.22;;;17.04;73.72
71306;BME280;59097;46.858;18.632;2023-04-30T07:40:54;100485.47;;;16.99;73.22
71306;BME280;59097;46.858;18.632;2023-04-30T07:43:39;100496.31;;;17.04;73.35
71306;BME280;59097;46.858;18.632;2023-04-30T07:46:12;100490.56;;;17.77;69.25
71306;BME280;59097;46.858;18.632;2023-04-30T07:48:41;100490.56;;;17.77;69.25
71306;BME280;59097;46.858;18.632;2023-04-30T07:51:08;100478.06;;;17.36;71.33
71306;BME280;59097;46.858;18.632;2023-04-30T07:53:37;100481.41;;;17.20;72.32
71306;BME280;59097;46.858;18.632;2023-04-30T07:56:05;100481.81;;;17.93;71.37
71306;BME280;59097;46.858;18.632;2023-04-30T07:58:34;100480.78;;;19.85;63.92
71306;BME280;59097;46.858;18.632;2023-04-30T08:01:02;100469.03;;;23.42;51.05
71306;BME280;59097;46.858;18.632;2023-04-30T08:03:31;100487.56;;;26.74;41.12
71306;BME280;59097;46.858;18.632;2023-04-30T08:06:13;100480.31;;;28.26;37.63
71306;BME280;59097;46.858;18.632;2023-04-30T08:09:09;100481.28;;;25.84;39.80
71306;BME280;59097;46.858;18.632;2023-04-30T08:11:36;100492.56;;;28.15;36.59
71306;BME280;59097;46.858;18.632;2023-04-30T08:14:02;100469.91;;;26.30;37.25
71306;BME280;59097;46.858;18.632;2023-04-30T08:16:29;100483.47;;;28.06;35.47
71306;BME280;59097;46.858;18.632;2023-04-30T08:19:01;100473.25;;;28.25;34.63
71306;BME280;59097;46.858;18.632;2023-04-30T08:21:31;100473.25;;;28.25;34.63
71306;BME280;59097;46.858;18.632;2023-04-30T08:24:00;100477.87;;;28.52;34.25
71306;BME280;59097;46.858;18.632;2023-04-30T08:26:28;100461.78;;;27.55;36.46
71306;BME280;59097;46.858;18.632;2023-04-30T08:28:56;100460.56;;;28.70;34.94
71306;BME280;59097;46.858;18.632;2023-04-30T08:31:24;100468.53;;;28.80;34.45
71306;BME280;59097;46.858;18.632;2023-04-30T08:33:53;100471.63;;;28.24;35.42
71306;BME280;59097;46.858;18.632;2023-04-30T08:36:21;100460.13;;;28.41;34.43
71306;BME280;59097;46.858;18.632;2023-04-30T08:39:03;100452.25;;;25.22;39.94
71306;BME280;59097;46.858;18.632;2023-04-30T08:41:45;100462.00;;;26.70;37.90
71306;BME280;59097;46.858;18.632;2023-04-30T08:44:19;100466.09;;;28.16;35.67
71306;BME280;59097;46.858;18.632;2023-04-30T08:46:52;100459.69;;;25.98;38.59
71306;BME280;59097;46.858;18.632;2023-04-30T08:49:20;100462.56;;;26.30;38.38
71306;BME280;59097;46.858;18.632;2023-04-30T08:51:47;100471.75;;;25.87;39.58
71306;BME280;59097;46.858;18.632;2023-04-30T08:54:14;100474.28;;;27.24;35.94
71306;BME280;59097;46.858;18.632;2023-04-30T08:56:42;100464.56;;;27.36;36.16
71306;BME280;59097;46.858;18.632;2023-04-30T08:59:14;100466.97;;;26.26;36.92
71306;BME280;59097;46.858;18.632;2023-04-30T09:01:43;100466.97;;;26.26;36.92
71306;BME280;59097;46.858;18.632;2023-04-30T09:04:12;100475.38;;;26.48;38.27
71306;BME280;59097;46.858;18.632;2023-04-30T09:06:41;100458.47;;;26.33;37.02
71306;BME280;59097;46.858;18.632;2023-04-30T09:09:14;100477.13;;;24.52;41.35
71306;BME280;59097;46.858;18.632;2023-04-30T09:11:42;100469.22;;;25.95;37.76
71306;BME280;59097;46.858;18.632;2023-04-30T09:14:11;100468.94;;;25.39;38.24
71306;BME280;59097;46.858;18.632;2023-04-30T09:16:50;100473.00;;;25.71;37.60
71306;BME280;59097;46.858;18.632;2023-04-30T09:19:24;100469.47;;;25.08;38.12
71306;BME280;59097;46.858;18.632;2023-04-30T09:22:20;100482.78;;;25.09;39.05
71306;BME280;59097;46.858;18.632;2023-04-30T09:25:09;100475.38;;;22.55;43.71
71306;BME280;59097;46.858;18.632;2023-04-30T09:28:11;100484.13;;;22.88;44.11
71306;BME280;59097;46.858;18.632;2023-04-30T09:30:39;100480.91;;;22.96;42.74
71306;BME280;59097;46.858;18.632;2023-04-30T09:33:05;100464.13;;;23.34;43.27
71306;BME280;59097;46.858;18.632;2023-04-30T09:35:37;100464.31;;;21.95;46.50
71306;BME280;59097;46.858;18.632;2023-04-30T09:38:26;100458.13;;;21.58;47.68
71306;BME280;59097;46.858;18.632;2023-04-30T09:41:00;100469.88;;;21.42;46.72
71306;BME280;59097;46.858;18.632;2023-04-30T09:43:30;100469.88;;;21.42;46.72
71306;BME280;59097;46.858;18.632;2023-04-30T09:45:58;100456.09;;;20.53;48.99
71306;BME280;59097;46.858;18.632;2023-04-30T09:48:27;100445.62;;;20.35;50.56
71306;BME280;59097;46.858;18.632;2023-04-30T09:50:55;100455.78;;;20.76;49.16
71306;BME280;59097;46.858;18.632;2023-04-30T09:53:25;100454.37;;;20.47;50.30
71306;BME280;59097;46.858;18.632;2023-04-30T09:55:57;100453.09;;;20.28;48.87
71306;BME280;59097;46.858;18.632;2023-04-30T09:58:27;100448.19;;;20.03;50.48
71306;BME280;59097;46.858;18.632;2023-04-30T10:01:10;100433.53;;;19.94;50.33
71306;BME280;59097;46.858;18.632;2023-04-30T10:03:52;100447.00;;;20.16;49.42
71306;BME280;59097;46.858;18.632;2023-04-30T10:06:22;100443.87;;;20.02;47.94
71306;BME280;59097;46.858;18.632;2023-04-30T10:08:55;100439.00;;;20.21;49.25
71306;BME280;59097;46.858;18.632;2023-04-30T10:11:26;100448.59;;;20.60;48.71
71306;BME280;59097;46.858;18.632;2023-04-30T10:14:00;100447.37;;;20.46;48.74
71306;BME280;59097;46.858;18.632;2023-04-30T10:16:54;100449.69;;;20.59;48.20
71306;BME280;59097;46.858;18.632;2023-04-30T10:19:29;100456.41;;;20.56;48.22
71306;BME280;59097;46.858;18.632;2023-04-30T10:21:59;100453.44;;;20.58;48.61
71306;BME280;59097;46.858;18.632;2023-04-30T10:24:29;100449.31;;;20.50;48.27
71306;BME280;59097;46.858;18.632;2023-04-30T10:26:57;100459.62;;;20.85;47.25
71306;BME280;59097;46.858;18.632;2023-04-30T10:29:26;100462.97;;;20.92;46.59
71306;BME280;59097;46.858;18.632;2023-04-30T10:31:56;100457.47;;;20.82;47.53
71306;BME280;59097;46.858;18.632;2023-04-30T10:37:26;100459.75;;;20.03;46.37
71306;BME280;59097;46.858;18.632;2023-04-30T10:40:11;100456.28;;;20.46;46.79
71306;BME280;59097;46.858;18.632;2023-04-30T10:43:10;100452.59;;;20.31;47.48
71306;BME280;59097;46.858;18.632;2023-04-30T10:45:37;100448.06;;;20.15;47.75
71306;BME280;59097;46.858;18.632;2023-04-30T10:48:06;100463.16;;;19.39;48.11
71306;BME280;59097;46.858;18.632;2023-04-30T10:50:39;100450.78;;;19.76;47.67
71306;BME280;59097;46.858;18.632;2023-04-30T10:53:11;100450.66;;;19.88;47.71
71306;BME280;59097;46.858;18.632;2023-04-30T10:55:59;100439.06;;;21.33;45.47
71306;BME280;59097;46.858;18.632;2023-04-30T10:58:30;100439.06;;;21.33;45.47
71306;BME280;59097;46.858;18.632;2023-04-30T11:01:10;100437.63;;;20.93;44.91
71306;BME280;59097;46.858;18.632;2023-04-30T11:03:41;100437.66;;;21.25;45.69
71306;BME280;59097;46.858;18.632;2023-04-30T11:06:11;100440.28;;;21.57;44.30
71306;BME280;59097;46.858;18.632;2023-04-30T11:08:44;100437.88;;;21.23;44.31
71306;BME280;59097;46.858;18.632;2023-04-30T11:11:19;100428.69;;;21.19;44.11
71306;BME280;59097;46.858;18.632;2023-04-30T11:13:59;100435.28;;;20.48;45.73
71306;BME280;59097;46.858;18.632;2023-04-30T11:16:49;100422.53;;;20.39;45.10
71306;BME280;59097;46.858;18.632;2023-04-30T11:19:16;100427.41;;;20.68;45.65
71306;BME280;59097;46.858;18.632;2023-04-30T11:27:23;100436.06;;;21.71;44.17
71306;BME280;59097;46.858;18.632;2023-04-30T11:29:57;100432.22;;;22.04;42.03
71306;BME280;59097;46.858;18.632;2023-04-30T11:32:36;100432.22;;;22.04;42.03
71306;BME280;59097;46.858;18.632;2023-04-30T11:35:05;100431.25;;;21.04;44.14
71306;BME280;59097;46.858;18.632;2023-04-30T11:37:36;100431.13;;;20.36;44.51
71306;BME280;59097;46.858;18.632;2023-04-30T11:40:07;100433.87;;;20.41;45.16
71306;BME280;59097;46.858;18.632;2023-04-30T11:42:39;100431.75;;;21.01;43.26
71306;BME280;59097;46.858;18.632;2023-04-30T11:45:14;100423.75;;;21.43;43.23
71306;BME280;59097;46.858;18.632;2023-04-30T11:47:47;100429.78;;;21.60;43.57
71306;BME280;59097;46.858;18.632;2023-04-30T11:50:18;100433.44;;;21.81;43.50
71306;BME280;59097;46.858;18.632;2023-04-30T11:52:50;100417.19;;;20.70;43.51
71306;BME280;59097;46.858;18.632;2023-04-30T11:55:31;100430.34;;;20.40;44.92
71306;BME280;59097;46.858;18.632;2023-04-30T11:57:57;100427.06;;;20.17;44.39
71306;BME280;59097;46.858;18.632;2023-04-30T12:00:26;100430.03;;;20.37;45.14
71306;BME280;59097;46.858;18.632;2023-04-30T12:02:54;100422.44;;;20.29;45.74
71306;BME280;59097;46.858;18.632;2023-04-30T12:05:23;100418.16;;;20.33;46.84
71306;BME280;59097;46.858;18.632;2023-04-30T12:08:00;100427.25;;;20.80;45.10
71306;BME280;59097;46.858;18.632;2023-04-30T12:10:34;100427.25;;;20.80;45.10
71306;BME280;59097;46.858;18.632;2023-04-30T12:13:03;100428.03;;;20.05;45.00
71306;BME280;59097;46.858;18.632;2023-04-30T12:15:31;100432.56;;;19.83;47.11
71306;BME280;59097;46.858;18.632;2023-04-30T12:18:12;100391.72;;;19.65;46.26
71306;BME280;59097;46.858;18.632;2023-04-30T12:20:42;100425.75;;;20.19;45.43
71306;BME280;59097;46.858;18.632;2023-04-30T12:23:10;100420.88;;;20.16;45.28
71306;BME280;59097;46.858;18.632;2023-04-30T12:25:40;100415.44;;;19.89;45.73
71306;BME280;59097;46.858;18.632;2023-04-30T12:28:11;100418.69;;;19.91;45.26
71306;BME280;59097;46.858;18.632;2023-04-30T12:30:54;100413.72;;;20.75;44.82
71306;BME280;59097;46.858;18.632;2023-04-30T12:33:20;100405.81;;;20.95;43.81
71306;BME280;59097;46.858;18.632;2023-04-30T12:35:46;100400.63;;;20.89;42.64
71306;BME280;59097;46.858;18.632;2023-04-30T12:38:15;100405.94;;;20.52;43.96
71306;BME280;59097;46.858;18.632;2023-04-30T12:40:46;100397.41;;;20.60;43.86
71306;BME280;59097;46.858;18.632;2023-04-30T12:43:20;100388.72;;;21.11;42.49
71306;BME280;59097;46.858;18.632;2023-04-30T12:45:53;100388.72;;;21.11;42.49
71306;BME280;59097;46.858;18.632;2023-04-30T12:48:23;100375.56;;;20.30;43.30
71306;BME280;59097;46.858;18.632;2023-04-30T12:50:53;100378.28;;;20.35;42.57
71306;BME280;59097;46.858;18.632;2023-04-30T12:53:22;100386.63;;;20.60;42.99
71306;BME280;59097;46.858;18.632;2023-04-30T12:56:26;100380.94;;;20.30;43.18
71306;BME280;59097;46.858;18.632;2023-04-30T12:58:54;100372.91;;;20.35;42.93
71306;BME280;59097;46.858;18.632;2023-04-30T13:01:43;100381.00;;;20.13;44.79
71306;BME280;59097;46.858;18.632;2023-04-30T13:04:38;100383.72;;;20.40;43.31
71306;BME280;59097;46.858;18.632;2023-04-30T13:07:19;100364.53;;;20.09;43.69
71306;BME280;59097;46.858;18.632;2023-04-30T13:09:46;100375.00;;;20.28;43.10
71306;BME280;59097;46.858;18.632;2023-04-30T13:12:12;100373.47;;;20.15;43.38
71306;BME280;59097;46.858;18.632;2023-04-30T13:14:39;100358.28;;;20.26;43.81
71306;BME280;59097;46.858;18.632;2023-04-30T13:17:06;100369.75;;;20.43;43.49
71306;BME280;59097;46.858;18.632;2023-04-30T13:19:40;100362.53;;;20.80;41.58
71306;BME280;59097;46.858;18.632;2023-04-30T13:22:09;100362.53;;;20.80;41.58
71306;BME280;59097;46.858;18.632;2023-04-30T13:24:37;100356.78;;;19.91;43.97